Time;durP1;ratioP1;P1;durP2;ratioP2;P2;SDS_P1;SDS_P2;PMS_P1;PMS_P2;Temp;Humidity;BMP_temperature;BMP_pressure;BME280_temperature;BME280_humidity;BME280_pressure;Samples;Min_cycle;Max_cycle;Signal;HPM_P1;HPM_P2
2021/09/08 00:00:48;;;;;;;33.75;22.75;;;;;;;12.61;100.00;101572.97;5046601;28;20441;-65
2021/09/08 00:03:15;;;;;;;32.17;22.15;;;;;;;12.61;100.00;101572.97;5047882;28;20128;-68
2021/09/08 00:05:43;;;;;;;35.05;22.60;;;;;;;12.80;100.00;101575.50;5064561;28;20032;-67
2021/09/08 00:08:10;;;;;;;34.08;23.25;;;;;;;12.70;100.00;101579.53;5032694;28;20139;-66
2021/09/08 00:10:37;;;;;;;34.92;23.15;;;;;;;12.61;100.00;101568.53;5023166;28;20502;-66
2021/09/08 00:13:05;;;;;;;37.33;23.83;;;;;;;12.72;100.00;101569.75;5064131;28;20044;-67
2021/09/08 00:15:32;;;;;;;29.90;21.90;;;;;;;12.72;100.00;101565.31;5062588;28;20053;-65
2021/09/08 00:17:59;;;;;;;33.25;23.15;;;;;;;12.77;100.00;101565.06;5065409;28;20582;-66
2021/09/08 00:20:26;;;;;;;32.28;21.73;;;;;;;12.62;100.00;101566.75;5061957;28;20057;-66
2021/09/08 00:22:54;;;;;;;34.85;24.60;;;;;;;12.57;100.00;101566.16;5048265;28;20528;-66
2021/09/08 00:25:21;;;;;;;30.42;21.98;;;;;;;12.46;100.00;101564.03;5038835;28;20545;-66
2021/09/08 00:27:48;;;;;;;35.83;22.25;;;;;;;12.40;100.00;101562.56;5062441;28;20062;-66
2021/09/08 00:30:16;;;;;;;34.72;21.58;;;;;;;12.36;100.00;101562.81;5061652;28;20079;-67
2021/09/08 00:32:43;;;;;;;30.73;21.48;;;;;;;12.34;100.00;101564.69;5065111;28;20065;-66
2021/09/08 00:35:10;;;;;;;32.70;22.85;;;;;;;12.30;100.00;101571.06;5064143;28;20537;-66
2021/09/08 00:37:39;;;;;;;32.65;22.50;;;;;;;12.33;100.00;101565.59;5053768;28;20079;-66
2021/09/08 00:40:09;;;;;;;31.83;22.65;;;;;;;12.29;100.00;101567.56;5038395;28;20056;-66
2021/09/08 00:42:36;;;;;;;32.65;22.02;;;;;;;12.40;100.00;101569.66;5049321;28;20076;-66
2021/09/08 00:45:04;;;;;;;30.35;21.70;;;;;;;12.36;100.00;101566.31;5045773;28;20106;-67
2021/09/08 00:47:31;;;;;;;32.45;22.85;;;;;;;12.30;100.00;101571.06;5029337;28;20048;-66
2021/09/08 00:49:59;;;;;;;29.15;21.65;;;;;;;12.25;100.00;101568.66;5042296;28;20072;-66
2021/09/08 00:52:26;;;;;;;29.35;21.90;;;;;;;12.23;100.00;101574.94;5028815;28;20333;-67
2021/09/08 00:54:55;;;;;;;29.67;21.65;;;;;;;12.22;100.00;101565.31;5059616;28;20072;-65
2021/09/08 00:57:22;;;;;;;33.92;22.58;;;;;;;12.18;100.00;101571.69;5061524;28;20519;-66
2021/09/08 00:59:49;;;;;;;36.60;22.63;;;;;;;12.14;100.00;101570.97;5044475;28;20623;-66
2021/09/08 01:02:16;;;;;;;32.90;21.13;;;;;;;12.09;100.00;101573.00;5044438;28;20054;-65
2021/09/08 01:04:45;;;;;;;32.53;22.23;;;;;;;12.07;100.00;101581.00;5062676;28;20045;-65
2021/09/08 01:07:12;;;;;;;30.65;22.00;;;;;;;12.10;100.00;101579.97;5064649;28;20072;-66
2021/09/08 01:09:40;;;;;;;39.70;25.13;;;;;;;12.10;100.00;101575.53;5051405;28;20568;-65
2021/09/08 01:12:19;;;;;;;34.10;23.33;;;;;;;12.09;100.00;101575.63;4976865;28;20057;-65
2021/09/08 01:14:46;;;;;;;29.48;21.27;;;;;;;12.08;100.00;101576.56;5042287;28;20052;-66
2021/09/08 01:17:17;;;;;;;30.55;21.50;;;;;;;12.08;100.00;101580.06;5064709;28;20110;-65
2021/09/08 01:19:44;;;;;;;29.65;22.60;;;;;;;12.06;100.00;101571.34;5041095;28;20051;-66
2021/09/08 01:22:12;;;;;;;35.60;23.25;;;;;;;12.06;100.00;101575.78;5040859;28;20136;-67
2021/09/08 01:24:40;;;;;;;28.85;21.73;;;;;;;12.05;100.00;101572.28;5060573;28;20500;-65
2021/09/08 01:27:07;;;;;;;35.30;23.08;;;;;;;12.16;100.00;101569.97;5054799;28;20049;-66
2021/09/08 01:29:35;;;;;;;40.92;23.13;;;;;;;12.17;100.00;101562.91;5024303;28;20893;-67
2021/09/08 01:32:02;;;;;;;30.20;20.88;;;;;;;12.09;100.00;101565.91;5042130;28;20048;-66
2021/09/08 01:34:30;;;;;;;32.35;22.50;;;;;;;12.32;100.00;101562.13;5061263;28;20140;-67
2021/09/08 01:36:57;;;;;;;27.52;21.38;;;;;;;12.31;100.00;101565.69;5062832;28;20522;-66
2021/09/08 01:39:24;;;;;;;32.08;22.73;;;;;;;12.24;100.00;101568.72;5027374;28;20052;-66
2021/09/08 01:41:51;;;;;;;30.75;21.40;;;;;;;12.12;100.00;101563.13;5038511;28;20040;-66
2021/09/08 01:44:21;;;;;;;27.42;21.70;;;;;;;12.05;100.00;101567.00;5061575;28;20049;-66
2021/09/08 01:46:51;;;;;;;33.95;22.48;;;;;;;12.02;100.00;101569.81;5045552;28;20159;-67
2021/09/08 01:49:18;;;;;;;38.08;22.23;;;;;;;12.15;100.00;101570.88;5059913;28;20056;-67
2021/09/08 01:51:45;;;;;;;35.92;23.00;;;;;;;12.07;100.00;101567.78;5028282;28;20048;-67
2021/09/08 01:54:12;;;;;;;34.72;22.17;;;;;;;12.06;100.00;101560.78;5040778;28;20048;-67
2021/09/08 01:56:40;;;;;;;33.92;22.27;;;;;;;12.06;100.00;101565.22;5037110;28;20052;-68
2021/09/08 01:59:07;;;;;;;28.65;20.67;;;;;;;12.22;100.00;101557.38;5044823;28;20047;-67
2021/09/08 02:01:34;;;;;;;29.65;21.30;;;;;;;12.18;100.00;101558.47;5027068;28;20525;-67
2021/09/08 02:04:02;;;;;;;30.33;22.45;;;;;;;12.05;100.00;101559.09;5043364;28;20047;-67
2021/09/08 02:06:29;;;;;;;28.38;23.20;;;;;;;11.96;100.00;101569.25;5040538;28;20048;-67
2021/09/08 02:08:58;;;;;;;38.58;23.75;;;;;;;12.01;100.00;101560.16;5062421;28;20044;-66
2021/09/08 02:11:26;;;;;;;34.90;23.10;;;;;;;12.08;100.00;101561.56;5038431;28;20064;-65
2021/09/08 02:13:53;;;;;;;32.28;21.88;;;;;;;12.15;100.00;101557.69;5027760;28;20048;-65
2021/09/08 02:16:21;;;;;;;30.08;21.85;;;;;;;12.15;100.00;101556.84;5062663;28;20052;-66
2021/09/08 02:18:49;;;;;;;33.30;24.40;;;;;;;12.03;100.00;101563.59;5058978;28;20205;-65
2021/09/08 02:21:17;;;;;;;31.77;23.23;;;;;;;11.93;100.00;101564.97;5044710;28;21164;-65
2021/09/08 02:23:45;;;;;;;32.35;22.20;;;;;;;11.90;100.00;101559.88;5042936;28;20041;-66
2021/09/08 02:26:12;;;;;;;40.47;24.67;;;;;;;11.81;100.00;101562.91;5053826;28;20071;-66
2021/09/08 02:28:40;;;;;;;37.67;26.23;;;;;;;11.78;100.00;101561.28;5043159;28;20052;-66
2021/09/08 02:31:07;;;;;;;32.72;24.10;;;;;;;11.76;100.00;101562.28;5049935;28;20574;-66
2021/09/08 02:33:35;;;;;;;32.00;22.30;;;;;;;11.82;100.00;101561.97;5066766;28;20586;-66
2021/09/08 02:36:03;;;;;;;38.78;23.52;;;;;;;11.80;100.00;101555.94;5064343;28;20143;-66
2021/09/08 02:38:31;;;;;;;33.17;22.70;;;;;;;11.77;100.00;101556.94;5044635;28;20147;-66
2021/09/08 02:41:00;;;;;;;30.58;22.15;;;;;;;11.96;100.00;101556.06;5049973;28;20057;-66
2021/09/08 02:43:27;;;;;;;31.88;23.25;;;;;;;12.13;100.00;101558.72;5070569;28;20091;-66
2021/09/08 02:45:54;;;;;;;37.08;22.38;;;;;;;12.03;100.00;101542.50;5066926;28;20360;-66
2021/09/08 02:48:21;;;;;;;35.78;22.83;;;;;;;11.97;100.00;101549.84;5057745;28;20163;-66
2021/09/08 02:50:48;;;;;;;37.55;23.60;;;;;;;11.97;100.00;101548.06;5046785;28;20067;-66
2021/09/08 02:53:16;;;;;;;29.27;21.85;;;;;;;12.09;100.00;101542.16;5047267;28;20138;-65
2021/09/08 02:55:43;;;;;;;38.92;24.00;;;;;;;11.96;100.00;101546.34;5063614;28;20422;-65
2021/09/08 02:58:10;;;;;;;35.53;23.58;;;;;;;11.86;100.00;101548.59;5039724;28;20740;-66
2021/09/08 03:00:37;;;;;;;31.60;22.13;;;;;;;11.73;100.00;101543.97;5046746;28;20143;-66
2021/09/08 03:03:04;;;;;;;31.92;23.10;;;;;;;11.64;100.00;101542.63;5045250;28;20118;-66
2021/09/08 03:05:32;;;;;;;35.80;23.33;;;;;;;11.65;100.00;101544.34;5045707;28;20159;-65
2021/09/08 03:07:59;;;;;;;34.63;22.48;;;;;;;11.62;100.00;101536.59;5056088;28;20136;-66
2021/09/08 03:10:26;;;;;;;31.27;23.67;;;;;;;11.68;100.00;101535.44;5064756;28;20060;-66
2021/09/08 03:12:54;;;;;;;35.83;24.45;;;;;;;11.65;100.00;101545.19;5037037;28;20140;-66
2021/09/08 03:15:21;;;;;;;32.65;23.42;;;;;;;11.67;100.00;101539.84;5045361;28;20062;-66
2021/09/08 03:17:48;;;;;;;34.63;24.98;;;;;;;11.54;100.00;101539.59;5047706;28;20058;-66
2021/09/08 03:20:15;;;;;;;35.40;23.38;;;;;;;11.50;100.00;101539.81;5058251;28;20087;-66
2021/09/08 03:22:42;;;;;;;33.30;24.75;;;;;;;11.45;100.00;101541.81;5050545;28;20140;-65
2021/09/08 03:25:10;;;;;;;32.55;26.30;;;;;;;11.43;100.00;101544.50;5045504;28;20421;-66
2021/09/08 03:27:37;;;;;;;31.80;24.45;;;;;;;11.39;100.00;101545.59;5040922;28;20063;-66
2021/09/08 03:30:05;;;;;;;32.63;24.08;;;;;;;11.36;100.00;101546.59;5042252;28;20521;-64
2021/09/08 03:32:32;;;;;;;30.80;23.88;;;;;;;11.43;100.00;101546.28;5064929;28;20047;-66
2021/09/08 03:34:59;;;;;;;35.72;24.10;;;;;;;11.73;100.00;101544.81;5057098;28;20517;-67
2021/09/08 03:37:27;;;;;;;35.90;25.23;;;;;;;11.58;100.00;101546.44;5046121;28;20094;-65
2021/09/08 03:39:56;;;;;;;34.95;24.55;;;;;;;11.51;100.00;101545.00;5043259;28;20052;-65
2021/09/08 03:42:24;;;;;;;39.63;26.17;;;;;;;11.62;100.00;101549.78;5041178;28;20732;-65
2021/09/08 03:44:51;;;;;;;41.38;28.95;;;;;;;11.58;100.00;101551.72;5060574;28;20044;-66
2021/09/08 03:47:18;;;;;;;36.55;25.13;;;;;;;11.47;100.00;101556.63;5030531;28;20051;-66
2021/09/08 03:49:46;;;;;;;37.15;25.27;;;;;;;11.44;100.00;101543.59;5029848;28;20450;-65
2021/09/08 03:52:14;;;;;;;34.10;25.15;;;;;;;11.40;100.00;101544.69;5063698;28;20499;-66
2021/09/08 03:54:41;;;;;;;40.33;25.58;;;;;;;11.34;100.00;101545.81;5060069;28;20056;-66
2021/09/08 03:57:08;;;;;;;32.05;24.35;;;;;;;11.34;100.00;101542.31;5045142;23;20052;-69
2021/09/08 03:59:36;;;;;;;37.22;25.48;;;;;;;11.34;100.00;101545.81;5017479;28;21384;-68
2021/09/08 04:02:03;;;;;;;35.90;26.23;;;;;;;11.41;100.00;101544.59;5010471;28;20132;-68
2021/09/08 04:04:31;;;;;;;37.25;27.02;;;;;;;11.40;100.00;101540.25;5006163;28;20055;-69
2021/09/08 04:06:58;;;;;;;33.25;25.48;;;;;;;11.73;100.00;101539.53;5027715;28;20099;-70
2021/09/08 04:09:31;;;;;;;38.47;24.75;;;;;;;11.84;100.00;101536.41;5038676;28;20132;-69
2021/09/08 04:11:58;;;;;;;33.50;24.83;;;;;;;11.71;100.00;101541.41;5009155;28;20060;-70
2021/09/08 04:14:25;;;;;;;36.20;24.73;;;;;;;11.65;100.00;101539.91;5038807;28;20053;-69
2021/09/08 04:16:52;;;;;;;34.42;25.80;;;;;;;11.65;100.00;101534.63;5046442;28;20060;-70
2021/09/08 04:19:20;;;;;;;42.60;28.27;;;;;;;11.68;100.00;101535.44;5026510;28;20056;-71
2021/09/08 04:21:47;;;;;;;36.40;25.02;;;;;;;11.75;100.00;101540.34;5045278;28;20044;-70
2021/09/08 04:24:15;;;;;;;38.60;26.80;;;;;;;11.70;100.00;101531.78;5040210;28;20591;-71
2021/09/08 04:26:42;;;;;;;38.70;27.40;;;;;;;11.65;100.00;101532.00;5046181;28;20045;-70
2021/09/08 04:29:09;;;;;;;35.92;26.10;;;;;;;11.79;100.00;101541.03;5037929;28;20510;-71
2021/09/08 04:31:36;;;;;;;36.55;26.23;;;;;;;11.97;100.00;101531.38;5039254;28;20065;-71
2021/09/08 04:34:06;;;;;;;38.20;27.00;;;;;;;12.04;100.00;101525.72;5024709;28;20045;-71
2021/09/08 04:36:34;;;;;;;36.67;24.27;;;;;;;12.19;100.00;101524.06;5046876;28;20049;-71
2021/09/08 04:39:01;;;;;;;36.78;23.45;;;;;;;12.39;100.00;101523.06;5032376;28;20152;-70
2021/09/08 04:41:28;;;;;;;35.97;24.17;;;;;;;12.23;100.00;101520.34;5048441;28;20072;-70
2021/09/08 04:43:56;;;;;;;31.15;22.20;;;;;;;12.36;100.00;101516.13;5040391;28;20068;-74
2021/09/08 04:46:23;;;;;;;32.60;22.25;;;;;;;12.40;100.00;101522.13;5055823;28;20072;-71
2021/09/08 04:48:50;;;;;;;31.60;22.67;;;;;;;12.54;100.00;101514.31;5048891;28;20049;-68
2021/09/08 04:51:18;;;;;;;32.63;22.75;;;;;;;12.45;100.00;101511.31;5047310;28;20056;-69
2021/09/08 04:53:45;;;;;;;31.23;23.05;;;;;;;12.38;100.00;101510.75;5043917;28;20048;-68
2021/09/08 04:56:13;;;;;;;31.83;22.25;;;;;;;12.45;100.00;101517.44;5040930;28;20068;-69
2021/09/08 04:58:40;;;;;;;30.67;21.95;;;;;;;12.53;100.00;101511.75;5019022;28;20510;-67
2021/09/08 05:01:07;;;;;;;29.17;20.98;;;;;;;12.74;100.00;101518.53;5026051;28;20091;-69
2021/09/08 05:03:34;;;;;;;27.95;21.48;;;;;;;12.86;100.00;101517.03;5007562;28;20055;-69
2021/09/08 05:06:02;;;;;;;34.67;21.30;;;;;;;12.85;100.00;101517.97;5041944;28;20041;-67
2021/09/08 05:08:29;;;;;;;36.53;23.70;;;;;;;12.89;100.00;101524.78;5040563;28;20049;-69
2021/09/08 05:10:56;;;;;;;31.15;22.50;;;;;;;12.96;100.00;101517.38;5040379;28;20132;-68
2021/09/08 05:13:24;;;;;;;28.80;20.25;;;;;;;13.04;100.00;101516.00;5039923;28;20061;-69
2021/09/08 06:33:41;;;;;;;19.52;13.40;;;;;;;25.39;49.12;101490.44;5031514;28;20039;-68
2021/09/08 06:36:08;;;;;;;26.38;14.45;;;;;;;26.22;45.77;101490.31;5034433;28;20045;-72
2021/09/08 06:38:36;;;;;;;17.10;13.07;;;;;;;27.45;42.75;101493.34;5042195;28;20519;-68
2021/09/08 06:41:03;;;;;;;20.70;12.43;;;;;;;28.60;40.30;101490.47;5045014;28;20058;-68
2021/09/08 06:43:31;;;;;;;18.08;12.57;;;;;;;29.87;37.44;101490.00;5044473;28;20060;-69
2021/09/08 06:45:59;;;;;;;14.75;12.27;;;;;;;29.29;37.49;101491.94;5022472;28;20837;-68
2021/09/08 06:48:26;;;;;;;23.80;11.80;;;;;;;30.06;35.98;101485.75;5035505;28;20055;-69
2021/09/08 06:50:53;;;;;;;15.88;12.30;;;;;;;30.39;34.74;101492.28;5040096;28;20049;-67
2021/09/08 06:53:21;;;;;;;15.10;11.45;;;;;;;31.06;33.95;101493.44;4992461;28;20064;-70
2021/09/08 06:55:49;;;;;;;14.68;11.65;;;;;;;31.26;32.64;101494.34;5017267;28;20065;-68
2021/09/08 06:58:16;;;;;;;14.27;11.57;;;;;;;31.03;32.99;101491.16;5039444;28;20045;-67
2021/09/08 07:00:44;;;;;;;14.30;12.07;;;;;;;32.15;31.51;101487.75;5046497;28;20541;-68
2021/09/08 07:03:12;;;;;;;21.05;12.25;;;;;;;32.89;30.04;101485.66;5027247;28;20056;-68
2021/09/08 07:05:44;;;;;;;16.10;11.95;;;;;;;32.01;31.28;101489.63;5008640;28;20053;-68
2021/09/08 07:08:14;;;;;;;14.65;11.65;;;;;;;31.56;31.68;101491.28;5018063;28;20037;-69
2021/09/08 07:10:42;;;;;;;16.40;11.52;;;;;;;32.77;30.80;101480.88;5042205;28;20443;-67
2021/09/08 07:13:09;;;;;;;18.67;12.50;;;;;;;32.89;29.89;101483.75;5039593;28;20083;-68
2021/09/08 07:15:36;;;;;;;13.52;11.05;;;;;;;33.57;28.91;101482.34;5039474;28;20041;-68
2021/09/08 07:18:04;;;;;;;17.63;13.10;;;;;;;33.94;28.26;101480.56;5039011;28;20064;-69
2021/09/08 07:20:31;;;;;;;15.95;13.27;;;;;;;33.71;28.57;101482.00;5046455;28;20515;-68
2021/09/08 07:22:59;;;;;;;14.70;12.65;;;;;;;33.87;27.51;101485.25;5038711;28;20080;-69
2021/09/08 07:25:26;;;;;;;13.35;11.73;;;;;;;33.65;27.75;101488.38;5021886;28;20321;-71
2021/09/08 07:27:54;;;;;;;15.15;12.68;;;;;;;33.01;29.12;101483.94;5020549;28;20521;-68
2021/09/08 07:30:22;;;;;;;20.30;13.18;;;;;;;32.05;30.20;101484.59;5041624;28;20108;-67
2021/09/08 07:32:49;;;;;;;13.75;12.35;;;;;;;32.80;29.20;101473.31;5019231;28;20122;-69
2021/09/08 07:35:17;;;;;;;13.90;12.20;;;;;;;33.60;28.20;101477.28;5038841;28;20439;-70
2021/09/08 07:37:44;;;;;;;14.85;11.48;;;;;;;34.16;27.65;101481.84;5024826;28;20048;-68
2021/09/08 07:40:11;;;;;;;18.75;12.07;;;;;;;33.68;27.80;101484.34;5038051;28;20046;-68
2021/09/08 07:42:39;;;;;;;16.88;11.77;;;;;;;34.04;27.77;101491.00;5041965;28;20049;-67
2021/09/08 07:45:08;;;;;;;16.65;11.00;;;;;;;34.55;26.26;101485.25;5043287;28;20052;-68
2021/09/08 07:47:37;;;;;;;12.13;10.82;;;;;;;34.78;26.37;101486.44;5053223;28;20051;-68
2021/09/08 07:50:05;;;;;;;12.75;10.32;;;;;;;34.16;26.55;101483.75;5039425;28;20380;-68
2021/09/08 07:52:32;;;;;;;13.27;10.73;;;;;;;34.67;25.44;101480.66;5039244;28;20049;-67
2021/09/08 07:55:01;;;;;;;13.13;11.32;;;;;;;34.55;26.10;101477.03;5039795;28;20057;-68
2021/09/08 07:57:28;;;;;;;13.25;10.90;;;;;;;33.74;27.45;101476.13;5040351;28;20697;-68
2021/09/08 07:59:55;;;;;;;15.13;11.07;;;;;;;34.11;26.59;101472.66;5037984;28;20053;-69
2021/09/08 08:02:23;;;;;;;14.10;10.80;;;;;;;35.06;25.74;101467.53;5025757;28;20116;-69
2021/09/08 08:04:51;;;;;;;18.83;12.52;;;;;;;33.94;27.04;101469.63;5032279;28;20536;-66
2021/09/08 08:07:18;;;;;;;21.27;10.95;;;;;;;35.23;25.58;101468.56;5036291;28;20440;-68
2021/09/08 08:09:45;;;;;;;15.50;11.10;;;;;;;34.61;26.40;101472.53;5037285;28;20095;-69
2021/09/08 08:12:13;;;;;;;49.35;13.15;;;;;;;34.65;26.53;101466.38;5019554;28;20135;-67
2021/09/08 08:14:42;;;;;;;14.63;10.68;;;;;;;34.08;26.91;101464.91;5025019;28;20072;-68
2021/09/08 08:17:10;;;;;;;16.00;10.98;;;;;;;33.89;27.65;101464.00;5019324;28;20119;-68
2021/09/08 08:19:37;;;;;;;13.80;11.75;;;;;;;33.13;28.83;101464.97;5020020;28;20140;-67
2021/09/08 08:22:05;;;;;;;11.27;8.82;;;;;;;34.38;26.97;101456.81;5041643;28;20053;-68
2021/09/08 08:24:32;;;;;;;13.35;10.48;;;;;;;34.50;26.28;101465.94;5026119;28;20103;-68
2021/09/08 08:27:00;;;;;;;12.70;9.73;;;;;;;34.52;26.24;101452.88;5042278;28;20419;-69
2021/09/08 08:29:28;;;;;;;11.45;9.48;;;;;;;34.41;26.56;101464.56;5032586;28;20454;-67
2021/09/08 08:31:55;;;;;;;17.00;10.10;;;;;;;35.12;25.27;101458.41;5022574;28;20053;-69
2021/09/08 08:34:23;;;;;;;10.32;9.23;;;;;;;35.15;24.95;101460.69;5038051;28;20064;-70
2021/09/08 08:36:51;;;;;;;12.13;10.32;;;;;;;34.95;25.74;101458.22;5034781;28;20041;-68
2021/09/08 08:39:18;;;;;;;20.98;11.32;;;;;;;33.19;28.23;101461.41;5015079;28;20049;-68
2021/09/08 08:41:46;;;;;;;13.50;9.90;;;;;;;30.77;31.18;101459.28;5038072;28;20564;-68
2021/09/08 08:44:16;;;;;;;12.57;9.65;;;;;;;28.74;34.74;101451.66;5039854;28;20045;-70
2021/09/08 08:46:43;;;;;;;16.10;10.55;;;;;;;27.26;38.12;101454.09;5019965;28;20049;-68
2021/09/08 08:49:11;;;;;;;13.68;9.60;;;;;;;26.23;40.08;101456.91;5019601;28;20042;-70
2021/09/08 08:51:38;;;;;;;13.32;10.25;;;;;;;25.86;42.10;101453.94;5009833;28;20106;-69
2021/09/08 08:54:06;;;;;;;12.57;9.85;;;;;;;25.08;42.51;101455.22;5035506;28;20056;-69
2021/09/08 08:56:33;;;;;;;11.45;8.75;;;;;;;24.91;43.57;101454.28;5015467;28;20053;-68
2021/09/08 08:59:01;;;;;;;15.00;10.07;;;;;;;24.59;45.49;101462.25;5021372;28;20060;-69
2021/09/08 09:01:31;;;;;;;20.38;10.20;;;;;;;24.58;45.18;101450.63;5045507;28;20052;-69
2021/09/08 09:04:08;;;;;;;18.00;9.45;;;;;;;24.79;45.39;101458.28;5038784;28;20055;-68
2021/09/08 09:06:42;;;;;;;17.98;10.52;;;;;;;24.60;46.47;101458.53;5035786;28;20055;-67
2021/09/08 09:09:11;;;;;;;12.63;9.30;;;;;;;23.93;46.79;101453.75;5027055;28;20357;-70
2021/09/08 09:11:42;;;;;;;17.20;10.38;;;;;;;24.02;46.71;101454.66;5046403;28;20055;-69
2021/09/08 09:14:11;;;;;;;12.85;9.48;;;;;;;24.08;46.68;101451.31;5031609;28;20128;-70
2021/09/08 09:16:40;;;;;;;13.18;9.02;;;;;;;24.17;46.52;101452.22;5028399;28;20049;-67
2021/09/08 09:19:12;;;;;;;16.92;9.35;;;;;;;23.73;47.54;101453.13;5051234;28;20056;-70
2021/09/08 09:21:39;;;;;;;15.02;9.82;;;;;;;23.83;47.91;101444.94;5041057;28;20052;-69
2021/09/08 09:24:08;;;;;;;14.02;9.18;;;;;;;23.86;47.37;101446.47;5017541;28;20103;-68
2021/09/08 09:26:40;;;;;;;13.55;10.27;;;;;;;24.02;46.87;101438.53;5025479;28;20053;-68
2021/09/08 09:29:18;;;;;;;13.95;10.10;;;;;;;23.54;47.36;101433.59;5043885;28;20094;-68
2021/09/08 09:31:57;;;;;;;14.10;9.70;;;;;;;23.40;48.07;101443.03;5022028;28;20140;-67
2021/09/08 09:34:28;;;;;;;12.07;9.23;;;;;;;23.61;47.82;101427.44;5021812;28;20064;-69
2021/09/08 09:36:58;;;;;;;12.27;8.88;;;;;;;23.60;48.89;101430.28;5039327;28;20087;-67
2021/09/08 09:39:31;;;;;;;14.70;9.93;;;;;;;23.85;49.24;101428.66;5036761;28;20056;-69
2021/09/08 09:42:07;;;;;;;12.27;9.32;;;;;;;23.81;47.80;101424.59;5044680;28;20063;-67
2021/09/08 09:44:35;;;;;;;10.88;8.82;;;;;;;24.00;47.71;101419.00;5038848;28;20076;-70
2021/09/08 09:47:03;;;;;;;17.65;10.07;;;;;;;24.05;47.14;101413.16;5019608;28;20045;-67
2021/09/08 09:49:33;;;;;;;11.43;8.43;;;;;;;24.02;46.96;101411.63;5040712;28;20057;-67
2021/09/08 09:52:07;;;;;;;15.40;9.63;;;;;;;23.77;47.70;101415.16;5018954;28;20055;-66
2021/09/08 09:54:36;;;;;;;14.98;9.02;;;;;;;23.85;47.47;101418.72;5037782;28;20049;-68
2021/09/08 09:57:04;;;;;;;11.52;9.05;;;;;;;23.69;48.10;101411.41;5039321;28;20091;-67
2021/09/08 09:59:32;;;;;;;15.68;9.75;;;;;;;23.83;47.89;101406.47;5039170;28;20057;-67
2021/09/08 10:02:00;;;;;;;9.68;8.30;;;;;;;23.77;47.92;101404.38;5029550;28;20454;-67
2021/09/08 10:04:28;;;;;;;11.40;9.00;;;;;;;23.72;47.48;101403.00;5036534;28;20606;-68
2021/09/08 10:06:56;;;;;;;13.40;8.02;;;;;;;23.64;48.17;101405.66;5040907;28;20057;-67
2021/09/08 10:09:26;;;;;;;16.20;8.70;;;;;;;23.63;48.18;101395.03;5019981;28;20055;-67
2021/09/08 10:11:55;;;;;;;12.98;9.20;;;;;;;23.50;48.29;101395.41;5020254;28;20217;-66
2021/09/08 10:14:26;;;;;;;13.13;9.80;;;;;;;23.46;49.29;101396.72;5038779;28;20057;-68
2021/09/08 10:16:53;;;;;;;13.05;10.00;;;;;;;23.40;49.24;101383.91;5020750;28;20041;-69
2021/09/08 10:19:25;;;;;;;12.50;10.30;;;;;;;23.42;49.29;101384.63;5021964;28;20064;-69
2021/09/08 10:21:54;;;;;;;14.00;9.18;;;;;;;23.32;50.18;101375.78;5024013;28;20053;-68
2021/09/08 10:24:24;;;;;;;16.40;10.13;;;;;;;23.38;50.75;101367.97;5035464;28;20069;-67
2021/09/08 10:26:52;;;;;;;11.18;8.68;;;;;;;23.52;49.97;101369.25;5019884;28;20746;-67
2021/09/08 10:29:25;;;;;;;16.88;8.80;;;;;;;23.57;49.73;101369.63;5038861;28;20526;-66
2021/09/08 10:31:56;;;;;;;10.93;8.68;;;;;;;23.61;49.58;101371.00;5022462;28;20057;-68
2021/09/08 10:34:24;;;;;;;14.95;9.20;;;;;;;23.67;49.12;101358.78;5034516;28;20053;-68
2021/09/08 10:36:52;;;;;;;16.50;9.63;;;;;;;23.56;49.52;101367.09;5025533;28;20048;-68
2021/09/08 10:39:20;;;;;;;12.15;8.73;;;;;;;23.36;50.13;101364.56;5016248;28;20053;-66
2021/09/08 10:41:53;;;;;;;12.82;9.63;;;;;;;23.27;49.98;101368.19;5037342;28;20050;-66
2021/09/08 10:44:43;;;;;;;17.42;9.27;;;;;;;23.17;50.21;101364.75;5036485;28;20044;-67
2021/09/08 10:47:10;;;;;;;11.32;8.50;;;;;;;22.97;50.73;101361.41;5023230;28;20511;-68
2021/09/08 10:49:40;;;;;;;14.82;8.80;;;;;;;23.04;50.99;101351.72;5021800;28;20052;-66
2021/09/08 10:52:34;;;;;;;11.38;9.27;;;;;;;23.13;51.03;101348.09;5037481;28;20512;-67
2021/09/08 10:55:02;;;;;;;11.75;9.55;;;;;;;23.27;50.80;101346.69;5028837;28;20059;-67
2021/09/08 10:57:38;;;;;;;17.77;9.98;;;;;;;23.21;51.38;101356.22;5038614;28;20148;-65
2021/09/08 11:00:30;;;;;;;18.35;9.95;;;;;;;23.14;52.20;101354.31;5018955;28;20053;-66
2021/09/08 11:02:58;;;;;;;14.20;9.45;;;;;;;23.22;51.90;101341.78;5044022;28;20193;-68
2021/09/08 11:05:26;;;;;;;12.98;9.90;;;;;;;23.27;51.79;101348.56;5042530;28;20423;-67
2021/09/08 11:07:53;;;;;;;12.85;10.45;;;;;;;23.07;51.73;101338.00;5045517;28;20048;-67
2021/09/08 11:10:30;;;;;;;13.85;10.07;;;;;;;22.90;52.13;101350.41;5041218;28;20718;-67
2021/09/08 11:13:00;;;;;;;15.43;9.80;;;;;;;22.81;52.49;101345.09;5046946;28;20087;-67
2021/09/08 11:15:37;;;;;;;14.52;10.00;;;;;;;22.70;52.58;101327.38;5022790;28;20523;-67
2021/09/08 11:18:11;;;;;;;21.00;9.45;;;;;;;22.81;52.98;101337.03;5042613;28;20053;-68
2021/09/08 11:20:40;;;;;;;11.15;8.88;;;;;;;22.96;52.19;101328.31;5045032;28;20051;-67
2021/09/08 11:23:12;;;;;;;14.85;9.43;;;;;;;23.14;51.81;101324.78;5043525;28;20057;-69
2021/09/08 11:25:41;;;;;;;16.25;8.98;;;;;;;23.26;50.63;101323.53;5024994;28;20069;-67
2021/09/08 11:28:10;;;;;;;15.40;9.25;;;;;;;23.15;50.84;101319.25;5034609;28;20077;-67
2021/09/08 11:30:42;;;;;;;17.02;8.55;;;;;;;23.11;51.28;101325.94;5041854;28;20065;-68
2021/09/08 11:33:14;;;;;;;9.82;8.40;;;;;;;23.31;50.44;101325.75;5045983;28;20621;-67
2021/09/08 11:35:44;;;;;;;14.85;8.50;;;;;;;23.36;50.61;101326.13;5048014;28;20052;-67
2021/09/08 11:38:13;;;;;;;10.73;8.50;;;;;;;23.29;49.70;101309.81;5050245;28;20075;-67
2021/09/08 11:40:45;;;;;;;14.50;9.90;;;;;;;23.28;50.28;101312.63;5048046;28;20100;-66
2021/09/08 11:43:14;;;;;;;11.30;7.85;;;;;;;23.36;50.36;101301.94;5044516;28;20053;-69
2021/09/08 11:45:41;;;;;;;12.10;8.68;;;;;;;23.34;50.23;101302.09;5026326;28;20048;-67
2021/09/08 11:48:08;;;;;;;10.98;9.55;;;;;;;23.23;50.22;101313.09;5041424;28;20069;-67
2021/09/08 11:50:35;;;;;;;9.60;8.32;;;;;;;23.19;50.52;101309.03;5039978;28;20495;-67
2021/09/08 11:53:03;;;;;;;13.90;9.30;;;;;;;23.24;50.51;101309.44;5042251;28;20414;-66
2021/09/08 11:55:33;;;;;;;10.57;8.68;;;;;;;23.14;49.97;101306.81;5042332;28;20060;-66
2021/09/08 11:58:20;;;;;;;12.98;8.82;;;;;;;23.17;50.50;101306.50;5042899;28;20360;-67
2021/09/08 12:00:53;;;;;;;12.40;7.95;;;;;;;23.22;49.54;101301.50;5042914;28;20102;-67
2021/09/08 12:03:22;;;;;;;9.57;7.93;;;;;;;23.34;48.98;101294.03;5040296;28;20057;-67
2021/09/08 12:05:50;;;;;;;9.80;7.55;;;;;;;23.28;49.06;101296.50;5043083;28;20048;-66
2021/09/08 12:08:23;;;;;;;11.15;8.20;;;;;;;23.49;49.56;101294.31;5042522;28;20368;-67
2021/09/08 12:10:51;;;;;;;20.40;9.02;;;;;;;23.64;48.78;101295.47;5038605;28;20053;-67
2021/09/08 12:13:29;;;;;;;10.90;7.57;;;;;;;23.61;49.02;101276.91;5040374;28;20048;-67
2021/09/08 12:15:57;;;;;;;11.40;7.78;;;;;;;23.76;48.60;101277.19;5040145;28;20045;-65
2021/09/08 12:18:24;;;;;;;11.52;7.90;;;;;;;23.71;48.07;101288.41;5011112;28;20052;-66
2021/09/08 12:20:52;;;;;;;12.85;8.00;;;;;;;23.46;48.58;101286.56;5041671;28;20067;-69
2021/09/08 12:23:27;;;;;;;14.18;8.27;;;;;;;23.52;48.72;101272.50;5037644;28;20062;-67
2021/09/08 12:26:05;;;;;;;12.53;7.33;;;;;;;23.54;48.37;101277.69;5019311;28;20150;-67
2021/09/08 12:28:33;;;;;;;12.75;7.60;;;;;;;23.56;48.02;101264.97;5043216;28;20467;-67
2021/09/08 12:31:44;;;;;;;15.73;8.43;;;;;;;23.57;48.10;101261.28;5043127;28;20049;-66